sensor_id;sensor_type;location;lat;lon;timestamp;P1;durP1;ratioP1;P2;durP2;ratioP2
81815;SDS011;71249;52.084;5.304;2024-02-26T00:00:55;4.91;;;4.1;;
81815;SDS011;71249;52.084;5.304;2024-02-26T00:02:31;4.8;;;4.41;;
81815;SDS011;71249;52.084;5.304;2024-02-26T00:04:07;6.6;;;4.5;;
81815;SDS011;71249;52.084;5.304;2024-02-26T00:07:21;5.8;;;4.2;;
81815;SDS011;71249;52.084;5.304;2024-02-26T00:08:57;5.11;;;4.61;;
81815;SDS011;71249;52.084;5.304;2024-02-26T00:10:34;5.0;;;4.5;;
81815;SDS011;71249;52.084;5.304;2024-02-26T00:12:10;5.9;;;4.5;;
81815;SDS011;71249;52.084;5.304;2024-02-26T00:15:26;4.5;;;4.1;;
81815;SDS011;71249;52.084;5.304;2024-02-26T00:17:02;5.2;;;4.3;;
81815;SDS011;71249;52.084;5.304;2024-02-26T00:18:39;5.11;;;4.41;;
81815;SDS011;71249;52.084;5.304;2024-02-26T00:21:51;5.4;;;4.8;;
81815;SDS011;71249;52.084;5.304;2024-02-26T00:23:28;5.9;;;4.8;;
81815;SDS011;71249;52.084;5.304;2024-02-26T00:25:05;5.11;;;4.5;;
81815;SDS011;71249;52.084;5.304;2024-02-26T00:28:19;6.2;;;5.0;;
81815;SDS011;71249;52.084;5.304;2024-02-26T00:29:57;5.6;;;5.0;;
81815;SDS011;71249;52.084;5.304;2024-02-26T00:31:33;5.6;;;5.0;;
81815;SDS011;71249;52.084;5.304;2024-02-26T00:33:10;8.1;;;5.3;;
81815;SDS011;71249;52.084;5.304;2024-02-26T00:36:22;5.7;;;4.3;;
81815;SDS011;71249;52.084;5.304;2024-02-26T00:37:58;6.2;;;5.2;;
81815;SDS011;71249;52.084;5.304;2024-02-26T00:39:35;5.9;;;4.91;;
81815;SDS011;71249;52.084;5.304;2024-02-26T00:42:47;6.4;;;5.0;;
81815;SDS011;71249;52.084;5.304;2024-02-26T00:44:23;5.5;;;5.0;;
81815;SDS011;71249;52.084;5.304;2024-02-26T00:46:01;6.0;;;5.4;;
81815;SDS011;71249;52.084;5.304;2024-02-26T00:49:13;6.3;;;4.8;;
81815;SDS011;71249;52.084;5.304;2024-02-26T00:50:49;6.3;;;5.2;;
81815;SDS011;71249;52.084;5.304;2024-02-26T00:52:25;5.5;;;5.11;;
81815;SDS011;71249;52.084;5.304;2024-02-26T00:54:01;6.4;;;5.4;;
81815;SDS011;71249;52.084;5.304;2024-02-26T00:57:14;5.9;;;5.11;;
81815;SDS011;71249;52.084;5.304;2024-02-26T00:58:50;5.6;;;5.11;;
81815;SDS011;71249;52.084;5.304;2024-02-26T01:00:26;6.5;;;5.4;;
81815;SDS011;71249;52.084;5.304;2024-02-26T01:03:39;6.3;;;5.7;;
81815;SDS011;71249;52.084;5.304;2024-02-26T01:05:15;6.4;;;5.5;;
81815;SDS011;71249;52.084;5.304;2024-02-26T01:06:51;5.7;;;5.2;;
81815;SDS011;71249;52.084;5.304;2024-02-26T01:10:08;6.6;;;6.0;;
81815;SDS011;71249;52.084;5.304;2024-02-26T01:11:45;7.1;;;6.4;;
81815;SDS011;71249;52.084;5.304;2024-02-26T01:13:21;7.5;;;5.9;;
81815;SDS011;71249;52.084;5.304;2024-02-26T01:14:57;7.8;;;6.6;;
81815;SDS011;71249;52.084;5.304;2024-02-26T01:18:10;6.4;;;5.8;;
81815;SDS011;71249;52.084;5.304;2024-02-26T01:19:47;7.4;;;6.3;;
81815;SDS011;71249;52.084;5.304;2024-02-26T01:21:24;6.4;;;5.8;;
81815;SDS011;71249;52.084;5.304;2024-02-26T01:24:37;7.3;;;6.5;;
81815;SDS011;71249;52.084;5.304;2024-02-26T01:26:13;6.8;;;6.1;;
81815;SDS011;71249;52.084;5.304;2024-02-26T01:27:49;7.3;;;6.6;;
81815;SDS011;71249;52.084;5.304;2024-02-26T01:31:02;6.9;;;6.3;;
81815;SDS011;71249;52.084;5.304;2024-02-26T01:32:39;6.3;;;5.8;;
81815;SDS011;71249;52.084;5.304;2024-02-26T01:34:16;7.3;;;6.6;;
81815;SDS011;71249;52.084;5.304;2024-02-26T01:35:52;7.1;;;6.5;;
81815;SDS011;71249;52.084;5.304;2024-02-26T01:39:05;6.8;;;6.2;;
81815;SDS011;71249;52.084;5.304;2024-02-26T01:40:41;6.6;;;6.0;;
81815;SDS011;71249;52.084;5.304;2024-02-26T01:42:17;7.0;;;6.4;;
81815;SDS011;71249;52.084;5.304;2024-02-26T01:45:32;8.4;;;6.8;;
81815;SDS011;71249;52.084;5.304;2024-02-26T01:47:10;6.7;;;6.1;;
81815;SDS011;71249;52.084;5.304;2024-02-26T01:48:47;7.1;;;6.4;;
81815;SDS011;71249;52.084;5.304;2024-02-26T01:52:02;6.5;;;5.9;;
81815;SDS011;71249;52.084;5.304;2024-02-26T01:53:40;7.2;;;6.5;;
81815;SDS011;71249;52.084;5.304;2024-02-26T01:55:17;6.4;;;5.8;;
81815;SDS011;71249;52.084;5.304;2024-02-26T01:56:54;7.7;;;6.4;;
81815;SDS011;71249;52.084;5.304;2024-02-26T02:00:09;6.9;;;6.2;;
81815;SDS011;71249;52.084;5.304;2024-02-26T02:01:47;6.8;;;6.2;;
81815;SDS011;71249;52.084;5.304;2024-02-26T02:03:31;7.6;;;6.8;;
81815;SDS011;71249;52.084;5.304;2024-02-26T02:05:07;6.5;;;5.9;;
81815;SDS011;71249;52.084;5.304;2024-02-26T02:08:22;6.4;;;5.8;;
81815;SDS011;71249;52.084;5.304;2024-02-26T02:09:59;7.3;;;6.5;;
81815;SDS011;71249;52.084;5.304;2024-02-26T02:11:36;6.6;;;6.0;;
81815;SDS011;71249;52.084;5.304;2024-02-26T02:14:49;6.9;;;6.3;;
81815;SDS011;71249;52.084;5.304;2024-02-26T02:16:25;8.0;;;7.0;;
81815;SDS011;71249;52.084;5.304;2024-02-26T02:18:01;7.1;;;6.5;;
81815;SDS011;71249;52.084;5.304;2024-02-26T02:21:14;6.6;;;6.0;;
81815;SDS011;71249;52.084;5.304;2024-02-26T02:22:50;7.0;;;6.4;;
81815;SDS011;71249;52.084;5.304;2024-02-26T02:24:26;7.2;;;6.5;;
81815;SDS011;71249;52.084;5.304;2024-02-26T02:26:03;7.6;;;6.9;;
81815;SDS011;71249;52.084;5.304;2024-02-26T02:29:16;7.3;;;6.7;;
81815;SDS011;71249;52.084;5.304;2024-02-26T02:30:52;7.0;;;6.4;;
81815;SDS011;71249;52.084;5.304;2024-02-26T02:32:29;7.4;;;6.8;;
81815;SDS011;71249;52.084;5.304;2024-02-26T02:35:44;8.5;;;7.7;;
81815;SDS011;71249;52.084;5.304;2024-02-26T02:37:20;7.7;;;7.0;;
81815;SDS011;71249;52.084;5.304;2024-02-26T02:38:57;7.8;;;7.0;;
81815;SDS011;71249;52.084;5.304;2024-02-26T02:42:11;7.5;;;6.8;;
81815;SDS011;71249;52.084;5.304;2024-02-26T02:43:47;7.9;;;7.2;;
81815;SDS011;71249;52.084;5.304;2024-02-26T02:45:23;8.0;;;7.2;;
81815;SDS011;71249;52.084;5.304;2024-02-26T02:46:59;7.8;;;7.0;;
81815;SDS011;71249;52.084;5.304;2024-02-26T02:50:11;8.6;;;7.0;;
81815;SDS011;71249;52.084;5.304;2024-02-26T02:51:51;7.6;;;6.7;;
81815;SDS011;71249;52.084;5.304;2024-02-26T02:53:28;8.0;;;7.3;;
81815;SDS011;71249;52.084;5.304;2024-02-26T02:56:42;7.1;;;6.5;;
81815;SDS011;71249;52.084;5.304;2024-02-26T02:58:18;8.1;;;7.3;;
81815;SDS011;71249;52.084;5.304;2024-02-26T02:59:54;8.0;;;7.3;;
81815;SDS011;71249;52.084;5.304;2024-02-26T03:03:06;8.4;;;6.9;;
81815;SDS011;71249;52.084;5.304;2024-02-26T03:04:42;8.0;;;7.2;;
81815;SDS011;71249;52.084;5.304;2024-02-26T03:06:18;7.5;;;6.8;;
81815;SDS011;71249;52.084;5.304;2024-02-26T03:07:54;7.9;;;7.1;;
81815;SDS011;71249;52.084;5.304;2024-02-26T03:11:07;7.3;;;6.6;;
81815;SDS011;71249;52.084;5.304;2024-02-26T03:12:43;7.7;;;6.9;;
81815;SDS011;71249;52.084;5.304;2024-02-26T03:14:19;8.81;;;7.9;;
81815;SDS011;71249;52.084;5.304;2024-02-26T03:17:31;8.5;;;6.9;;
81815;SDS011;71249;52.084;5.304;2024-02-26T03:19:07;8.6;;;6.9;;
81815;SDS011;71249;52.084;5.304;2024-02-26T03:20:43;8.1;;;7.4;;
81815;SDS011;71249;52.084;5.304;2024-02-26T03:23:55;8.0;;;7.3;;
81815;SDS011;71249;52.084;5.304;2024-02-26T03:25:31;8.2;;;7.5;;
81815;SDS011;71249;52.084;5.304;2024-02-26T03:27:07;7.9;;;7.2;;
81815;SDS011;71249;52.084;5.304;2024-02-26T03:30:21;7.9;;;7.2;;
81815;SDS011;71249;52.084;5.304;2024-02-26T03:31:58;7.7;;;6.9;;
81815;SDS011;71249;52.084;5.304;2024-02-26T03:33:34;9.0;;;8.1;;
81815;SDS011;71249;52.084;5.304;2024-02-26T03:35:11;8.4;;;7.6;;
81815;SDS011;71249;52.084;5.304;2024-02-26T03:38:23;8.0;;;7.3;;
81815;SDS011;71249;52.084;5.304;2024-02-26T03:40:00;8.0;;;7.2;;
81815;SDS011;71249;52.084;5.304;2024-02-26T03:41:36;8.71;;;7.8;;
81815;SDS011;71249;52.084;5.304;2024-02-26T03:44:49;8.0;;;7.2;;
81815;SDS011;71249;52.084;5.304;2024-02-26T03:46:25;8.71;;;7.8;;
81815;SDS011;71249;52.084;5.304;2024-02-26T03:48:02;8.9;;;8.1;;
81815;SDS011;71249;52.084;5.304;2024-02-26T03:51:14;9.5;;;8.5;;
81815;SDS011;71249;52.084;5.304;2024-02-26T03:52:51;10.1;;;9.1;;
81815;SDS011;71249;52.084;5.304;2024-02-26T03:54:28;10.4;;;9.4;;
81815;SDS011;71249;52.084;5.304;2024-02-26T03:56:04;10.1;;;9.1;;
81815;SDS011;71249;52.084;5.304;2024-02-26T03:59:19;9.9;;;8.9;;
81815;SDS011;71249;52.084;5.304;2024-02-26T04:00:55;9.4;;;8.5;;
81815;SDS011;71249;52.084;5.304;2024-02-26T04:02:32;10.21;;;8.9;;
81815;SDS011;71249;52.084;5.304;2024-02-26T04:05:44;10.4;;;9.1;;
81815;SDS011;71249;52.084;5.304;2024-02-26T04:07:21;11.7;;;9.21;;
81815;SDS011;71249;52.084;5.304;2024-02-26T04:08:57;10.0;;;9.1;;
81815;SDS011;71249;52.084;5.304;2024-02-26T04:12:09;10.3;;;9.31;;
81815;SDS011;71249;52.084;5.304;2024-02-26T04:13:46;11.0;;;10.0;;
81815;SDS011;71249;52.084;5.304;2024-02-26T04:15:22;10.3;;;9.21;;
81815;SDS011;71249;52.084;5.304;2024-02-26T04:16:58;10.3;;;9.31;;
81815;SDS011;71249;52.084;5.304;2024-02-26T04:20:13;10.4;;;9.4;;
81815;SDS011;71249;52.084;5.304;2024-02-26T04:21:52;10.9;;;9.81;;
81815;SDS011;71249;52.084;5.304;2024-02-26T04:23:28;11.0;;;9.31;;
81815;SDS011;71249;52.084;5.304;2024-02-26T04:26:41;9.71;;;8.81;;
81815;SDS011;71249;52.084;5.304;2024-02-26T04:28:17;10.0;;;9.0;;
81815;SDS011;71249;52.084;5.304;2024-02-26T04:29:53;10.6;;;9.31;;
81815;SDS011;71249;52.084;5.304;2024-02-26T04:33:06;10.21;;;9.21;;
81815;SDS011;71249;52.084;5.304;2024-02-26T04:34:42;10.21;;;9.21;;
81815;SDS011;71249;52.084;5.304;2024-02-26T04:36:18;10.0;;;9.0;;
81815;SDS011;71249;52.084;5.304;2024-02-26T04:37:56;9.71;;;8.81;;
81815;SDS011;71249;52.084;5.304;2024-02-26T04:41:09;10.1;;;9.1;;
81815;SDS011;71249;52.084;5.304;2024-02-26T04:42:46;9.6;;;8.6;;
81815;SDS011;71249;52.084;5.304;2024-02-26T04:44:22;11.7;;;8.9;;
81815;SDS011;71249;52.084;5.304;2024-02-26T04:47:35;10.0;;;9.0;;
81815;SDS011;71249;52.084;5.304;2024-02-26T04:49:11;10.4;;;9.31;;
81815;SDS011;71249;52.084;5.304;2024-02-26T04:50:47;9.71;;;8.81;;
81815;SDS011;71249;52.084;5.304;2024-02-26T04:53:59;9.6;;;8.71;;
81815;SDS011;71249;52.084;5.304;2024-02-26T04:55:37;9.1;;;8.2;;
81815;SDS011;71249;52.084;5.304;2024-02-26T04:57:13;9.71;;;8.81;;
81815;SDS011;71249;52.084;5.304;2024-02-26T04:58:49;9.71;;;8.81;;
81815;SDS011;71249;52.084;5.304;2024-02-26T05:02:02;9.6;;;8.4;;
81815;SDS011;71249;52.084;5.304;2024-02-26T05:03:39;10.4;;;8.5;;
81815;SDS011;71249;52.084;5.304;2024-02-26T05:05:15;9.4;;;8.4;;
81815;SDS011;71249;52.084;5.304;2024-02-26T05:08:31;9.4;;;8.4;;
81815;SDS011;71249;52.084;5.304;2024-02-26T05:10:08;10.8;;;8.6;;
81815;SDS011;71249;52.084;5.304;2024-02-26T05:11:45;9.81;;;8.9;;
81815;SDS011;71249;52.084;5.304;2024-02-26T05:13:21;9.71;;;8.71;;
81815;SDS011;71249;52.084;5.304;2024-02-26T05:16:35;10.3;;;8.9;;
81815;SDS011;71249;52.084;5.304;2024-02-26T05:18:11;9.6;;;8.71;;
81815;SDS011;71249;52.084;5.304;2024-02-26T05:19:47;10.4;;;9.31;;
81815;SDS011;71249;52.084;5.304;2024-02-26T05:22:59;10.5;;;9.5;;
81815;SDS011;71249;52.084;5.304;2024-02-26T05:24:37;10.3;;;9.21;;
81815;SDS011;71249;52.084;5.304;2024-02-26T05:26:18;10.0;;;9.0;;
81815;SDS011;71249;52.084;5.304;2024-02-26T05:29:33;11.3;;;9.9;;
81815;SDS011;71249;52.084;5.304;2024-02-26T05:31:09;11.4;;;9.1;;
81815;SDS011;71249;52.084;5.304;2024-02-26T05:32:48;10.9;;;9.5;;
81815;SDS011;71249;52.084;5.304;2024-02-26T05:34:24;10.4;;;9.4;;
81815;SDS011;71249;52.084;5.304;2024-02-26T05:37:37;10.6;;;9.6;;
81815;SDS011;71249;52.084;5.304;2024-02-26T05:39:15;9.9;;;8.81;;
81815;SDS011;71249;52.084;5.304;2024-02-26T05:40:51;9.6;;;8.71;;
81815;SDS011;71249;52.084;5.304;2024-02-26T05:44:03;10.8;;;9.71;;
81815;SDS011;71249;52.084;5.304;2024-02-26T05:45:40;10.7;;;9.6;;
81815;SDS011;71249;52.084;5.304;2024-02-26T05:47:17;10.6;;;9.6;;
81815;SDS011;71249;52.084;5.304;2024-02-26T05:50:30;11.7;;;10.5;;
81815;SDS011;71249;52.084;5.304;2024-02-26T05:52:07;10.7;;;9.6;;
81815;SDS011;71249;52.084;5.304;2024-02-26T05:53:44;11.3;;;10.21;;
81815;SDS011;71249;52.084;5.304;2024-02-26T05:58:35;11.8;;;10.6;;
81815;SDS011;71249;52.084;5.304;2024-02-26T06:00:12;12.1;;;10.8;;
81815;SDS011;71249;52.084;5.304;2024-02-26T06:01:49;11.8;;;10.6;;
81815;SDS011;71249;52.084;5.304;2024-02-26T06:05:01;12.6;;;11.2;;
81815;SDS011;71249;52.084;5.304;2024-02-26T06:06:39;11.7;;;10.6;;
81815;SDS011;71249;52.084;5.304;2024-02-26T06:08:16;12.1;;;10.9;;
81815;SDS011;71249;52.084;5.304;2024-02-26T06:09:53;12.5;;;11.2;;
81815;SDS011;71249;52.084;5.304;2024-02-26T06:13:08;12.7;;;11.2;;
81815;SDS011;71249;52.084;5.304;2024-02-26T06:14:45;13.9;;;12.0;;
81815;SDS011;71249;52.084;5.304;2024-02-26T06:16:21;12.4;;;11.1;;
81815;SDS011;71249;52.084;5.304;2024-02-26T06:19:36;13.6;;;12.2;;
81815;SDS011;71249;52.084;5.304;2024-02-26T06:21:13;13.5;;;12.1;;
81815;SDS011;71249;52.084;5.304;2024-02-26T06:22:50;13.6;;;12.2;;
81815;SDS011;71249;52.084;5.304;2024-02-26T06:26:05;13.3;;;11.9;;
81815;SDS011;71249;52.084;5.304;2024-02-26T06:27:41;13.9;;;12.0;;
81815;SDS011;71249;52.084;5.304;2024-02-26T06:29:18;14.6;;;11.9;;
81815;SDS011;71249;52.084;5.304;2024-02-26T06:30:55;12.7;;;11.3;;
81815;SDS011;71249;52.084;5.304;2024-02-26T06:34:10;15.0;;;12.1;;
81815;SDS011;71249;52.084;5.304;2024-02-26T06:35:47;14.1;;;12.4;;
81815;SDS011;71249;52.084;5.304;2024-02-26T06:37:24;13.8;;;12.4;;
81815;SDS011;71249;52.084;5.304;2024-02-26T06:40:38;13.8;;;12.4;;
81815;SDS011;71249;52.084;5.304;2024-02-26T06:42:14;13.7;;;12.2;;
81815;SDS011;71249;52.084;5.304;2024-02-26T06:43:51;13.6;;;12.0;;
81815;SDS011;71249;52.084;5.304;2024-02-26T06:45:28;13.7;;;12.3;;
81815;SDS011;71249;52.084;5.304;2024-02-26T06:48:41;14.8;;;13.0;;
81815;SDS011;71249;52.084;5.304;2024-02-26T06:50:17;16.0;;;14.1;;
81815;SDS011;71249;52.084;5.304;2024-02-26T06:53:31;14.9;;;13.3;;
81815;SDS011;71249;52.084;5.304;2024-02-26T06:55:08;15.4;;;13.3;;
81815;SDS011;71249;52.084;5.304;2024-02-26T06:56:45;14.5;;;13.0;;
81815;SDS011;71249;52.084;5.304;2024-02-26T06:59:59;16.5;;;14.1;;
81815;SDS011;71249;52.084;5.304;2024-02-26T07:01:36;16.9;;;14.3;;
81815;SDS011;71249;52.084;5.304;2024-02-26T07:03:13;19.61;;;16.0;;
81815;SDS011;71249;52.084;5.304;2024-02-26T07:04:50;18.11;;;14.7;;
81815;SDS011;71249;52.084;5.304;2024-02-26T07:08:05;17.3;;;14.8;;
81815;SDS011;71249;52.084;5.304;2024-02-26T07:09:43;18.11;;;15.5;;
81815;SDS011;71249;52.084;5.304;2024-02-26T07:11:19;18.11;;;15.5;;
81815;SDS011;71249;52.084;5.304;2024-02-26T07:14:32;18.61;;;15.7;;
81815;SDS011;71249;52.084;5.304;2024-02-26T07:16:14;18.3;;;15.6;;
81815;SDS011;71249;52.084;5.304;2024-02-26T07:17:57;18.41;;;16.0;;
81815;SDS011;71249;52.084;5.304;2024-02-26T07:19:35;19.7;;;16.11;;
81815;SDS011;71249;52.084;5.304;2024-02-26T07:22:48;19.5;;;16.5;;
81815;SDS011;71249;52.084;5.304;2024-02-26T07:24:24;19.61;;;17.0;;
81815;SDS011;71249;52.084;5.304;2024-02-26T07:26:06;20.9;;;17.7;;
81815;SDS011;71249;52.084;5.304;2024-02-26T07:29:19;20.11;;;16.8;;
81815;SDS011;71249;52.084;5.304;2024-02-26T07:30:55;19.61;;;17.5;;
81815;SDS011;71249;52.084;5.304;2024-02-26T07:32:33;21.9;;;17.8;;
81815;SDS011;71249;52.084;5.304;2024-02-26T07:34:10;20.6;;;17.41;;
81815;SDS011;71249;52.084;5.304;2024-02-26T07:37:24;23.5;;;19.0;;
81815;SDS011;71249;52.084;5.304;2024-02-26T07:39:01;24.0;;;18.3;;
81815;SDS011;71249;52.084;5.304;2024-02-26T07:40:38;23.6;;;18.7;;
81815;SDS011;71249;52.084;5.304;2024-02-26T07:43:52;24.7;;;20.6;;
81815;SDS011;71249;52.084;5.304;2024-02-26T07:45:29;26.6;;;20.6;;
81815;SDS011;71249;52.084;5.304;2024-02-26T07:47:05;27.2;;;21.4;;
81815;SDS011;71249;52.084;5.304;2024-02-26T07:48:41;27.4;;;21.7;;
81815;SDS011;71249;52.084;5.304;2024-02-26T07:51:54;28.5;;;22.0;;
81815;SDS011;71249;52.084;5.304;2024-02-26T07:53:31;26.0;;;21.4;;
81815;SDS011;71249;52.084;5.304;2024-02-26T07:55:08;26.8;;;21.7;;
81815;SDS011;71249;52.084;5.304;2024-02-26T07:58:23;26.0;;;21.7;;
81815;SDS011;71249;52.084;5.304;2024-02-26T08:00:00;30.0;;;23.8;;
81815;SDS011;71249;52.084;5.304;2024-02-26T08:01:37;27.9;;;23.5;;
81815;SDS011;71249;52.084;5.304;2024-02-26T08:04:50;29.7;;;23.8;;
81815;SDS011;71249;52.084;5.304;2024-02-26T08:06:27;26.9;;;23.2;;
81815;SDS011;71249;52.084;5.304;2024-02-26T08:08:04;28.5;;;24.1;;
81815;SDS011;71249;52.084;5.304;2024-02-26T08:09:41;28.3;;;24.3;;
81815;SDS011;71249;52.084;5.304;2024-02-26T08:12:55;28.5;;;23.1;;
81815;SDS011;71249;52.084;5.304;2024-02-26T08:14:31;29.5;;;23.9;;
81815;SDS011;71249;52.084;5.304;2024-02-26T08:16:08;32.0;;;24.4;;
81815;SDS011;71249;52.084;5.304;2024-02-26T08:19:22;27.8;;;23.5;;
81815;SDS011;71249;52.084;5.304;2024-02-26T08:20:59;30.1;;;24.5;;
81815;SDS011;71249;52.084;5.304;2024-02-26T08:22:37;28.4;;;24.1;;
81815;SDS011;71249;52.084;5.304;2024-02-26T08:25:51;28.0;;;24.6;;
81815;SDS011;71249;52.084;5.304;2024-02-26T08:27:28;27.1;;;23.5;;
81815;SDS011;71249;52.084;5.304;2024-02-26T08:29:04;27.4;;;24.5;;
81815;SDS011;71249;52.084;5.304;2024-02-26T08:30:41;28.6;;;24.4;;
81815;SDS011;71249;52.084;5.304;2024-02-26T08:33:55;28.8;;;24.4;;
81815;SDS011;71249;52.084;5.304;2024-02-26T08:35:32;27.0;;;23.2;;
81815;SDS011;71249;52.084;5.304;2024-02-26T08:37:08;25.4;;;21.9;;
81815;SDS011;71249;52.084;5.304;2024-02-26T08:40:21;26.4;;;22.6;;
81815;SDS011;71249;52.084;5.304;2024-02-26T08:41:58;24.3;;;21.5;;
81815;SDS011;71249;52.084;5.304;2024-02-26T08:43:35;22.7;;;19.61;;
81815;SDS011;71249;52.084;5.304;2024-02-26T08:45:11;21.9;;;18.91;;
81815;SDS011;71249;52.084;5.304;2024-02-26T08:48:25;20.41;;;18.11;;
81815;SDS011;71249;52.084;5.304;2024-02-26T08:50:02;19.7;;;17.61;;
81815;SDS011;71249;52.084;5.304;2024-02-26T08:51:41;19.3;;;17.2;;
81815;SDS011;71249;52.084;5.304;2024-02-26T08:54:55;17.5;;;15.7;;
81815;SDS011;71249;52.084;5.304;2024-02-26T08:56:32;20.11;;;15.9;;
81815;SDS011;71249;52.084;5.304;2024-02-26T08:58:09;21.1;;;15.5;;
81815;SDS011;71249;52.084;5.304;2024-02-26T09:01:24;16.3;;;14.4;;
81815;SDS011;71249;52.084;5.304;2024-02-26T09:03:01;16.0;;;13.7;;
81815;SDS011;71249;52.084;5.304;2024-02-26T09:04:37;14.5;;;13.0;;
81815;SDS011;71249;52.084;5.304;2024-02-26T09:06:14;18.5;;;14.7;;
81815;SDS011;71249;52.084;5.304;2024-02-26T09:09:28;15.1;;;13.5;;
81815;SDS011;71249;52.084;5.304;2024-02-26T09:11:05;14.7;;;13.2;;
81815;SDS011;71249;52.084;5.304;2024-02-26T09:12:41;14.7;;;13.2;;
81815;SDS011;71249;52.084;5.304;2024-02-26T09:15:55;14.0;;;12.5;;
81815;SDS011;71249;52.084;5.304;2024-02-26T09:17:32;14.9;;;13.3;;
81815;SDS011;71249;52.084;5.304;2024-02-26T09:19:10;14.0;;;12.6;;
81815;SDS011;71249;52.084;5.304;2024-02-26T09:20:47;13.7;;;12.2;;
81815;SDS011;71249;52.084;5.304;2024-02-26T09:24:01;14.6;;;12.4;;
81815;SDS011;71249;52.084;5.304;2024-02-26T09:25:38;13.0;;;11.7;;
81815;SDS011;71249;52.084;5.304;2024-02-26T09:27:15;13.1;;;11.6;;
81815;SDS011;71249;52.084;5.304;2024-02-26T09:30:29;14.2;;;11.5;;
81815;SDS011;71249;52.084;5.304;2024-02-26T09:32:07;13.0;;;11.5;;
81815;SDS011;71249;52.084;5.304;2024-02-26T09:33:44;12.8;;;11.5;;
81815;SDS011;71249;52.084;5.304;2024-02-26T09:36:58;12.7;;;11.3;;
81815;SDS011;71249;52.084;5.304;2024-02-26T09:38:35;11.3;;;10.21;;
81815;SDS011;71249;52.084;5.304;2024-02-26T09:40:12;12.0;;;10.7;;
81815;SDS011;71249;52.084;5.304;2024-02-26T09:41:48;12.3;;;10.9;;
81815;SDS011;71249;52.084;5.304;2024-02-26T09:45:11;12.1;;;10.8;;
81815;SDS011;71249;52.084;5.304;2024-02-26T09:46:53;11.5;;;10.3;;
81815;SDS011;71249;52.084;5.304;2024-02-26T09:48:30;12.3;;;10.5;;
81815;SDS011;71249;52.084;5.304;2024-02-26T09:50:09;10.6;;;9.5;;
81815;SDS011;71249;52.084;5.304;2024-02-26T09:53:25;11.2;;;10.1;;
81815;SDS011;71249;52.084;5.304;2024-02-26T09:55:05;12.3;;;9.81;;
81815;SDS011;71249;52.084;5.304;2024-02-26T09:56:44;11.4;;;9.31;;
81815;SDS011;71249;52.084;5.304;2024-02-26T09:58:27;11.3;;;10.1;;
81815;SDS011;71249;52.084;5.304;2024-02-26T10:01:51;11.8;;;10.6;;
81815;SDS011;71249;52.084;5.304;2024-02-26T10:03:32;11.4;;;10.3;;
81815;SDS011;71249;52.084;5.304;2024-02-26T10:05:14;11.6;;;10.1;;
81815;SDS011;71249;52.084;5.304;2024-02-26T10:06:53;11.7;;;9.31;;
81815;SDS011;71249;52.084;5.304;2024-02-26T10:10:09;10.8;;;9.6;;
81815;SDS011;71249;52.084;5.304;2024-02-26T10:11:46;11.0;;;9.5;;
81815;SDS011;71249;52.084;5.304;2024-02-26T10:13:25;10.7;;;9.6;;
81815;SDS011;71249;52.084;5.304;2024-02-26T10:16:38;10.1;;;9.0;;
81815;SDS011;71249;52.084;5.304;2024-02-26T10:18:15;10.7;;;9.0;;
81815;SDS011;71249;52.084;5.304;2024-02-26T10:19:52;12.5;;;9.81;;
81815;SDS011;71249;52.084;5.304;2024-02-26T10:21:29;9.81;;;8.9;;
81815;SDS011;71249;52.084;5.304;2024-02-26T10:24:44;9.71;;;8.6;;
81815;SDS011;71249;52.084;5.304;2024-02-26T10:26:23;10.6;;;9.5;;
81815;SDS011;71249;52.084;5.304;2024-02-26T10:28:00;13.1;;;10.0;;
81815;SDS011;71249;52.084;5.304;2024-02-26T10:31:15;11.2;;;10.0;;
81815;SDS011;71249;52.084;5.304;2024-02-26T10:32:52;10.4;;;9.31;;
81815;SDS011;71249;52.084;5.304;2024-02-26T10:34:29;9.9;;;8.9;;
81815;SDS011;71249;52.084;5.304;2024-02-26T10:36:07;10.21;;;9.21;;
81815;SDS011;71249;52.084;5.304;2024-02-26T10:39:25;11.7;;;9.9;;
81815;SDS011;71249;52.084;5.304;2024-02-26T10:41:02;10.8;;;9.71;;
81815;SDS011;71249;52.084;5.304;2024-02-26T10:42:39;10.9;;;9.81;;
81815;SDS011;71249;52.084;5.304;2024-02-26T10:45:54;10.9;;;9.5;;
81815;SDS011;71249;52.084;5.304;2024-02-26T10:47:31;10.6;;;9.4;;
81815;SDS011;71249;52.084;5.304;2024-02-26T10:49:13;11.2;;;9.4;;
81815;SDS011;71249;52.084;5.304;2024-02-26T10:50:53;11.7;;;10.0;;
81815;SDS011;71249;52.084;5.304;2024-02-26T10:54:09;10.4;;;9.31;;
81815;SDS011;71249;52.084;5.304;2024-02-26T10:55:52;10.4;;;9.0;;
81815;SDS011;71249;52.084;5.304;2024-02-26T10:57:33;10.7;;;9.4;;
81815;SDS011;71249;52.084;5.304;2024-02-26T10:59:12;10.3;;;9.21;;
81815;SDS011;71249;52.084;5.304;2024-02-26T11:02:28;10.21;;;9.21;;
81815;SDS011;71249;52.084;5.304;2024-02-26T11:04:06;10.7;;;9.71;;
81815;SDS011;71249;52.084;5.304;2024-02-26T11:05:46;9.6;;;8.71;;
81815;SDS011;71249;52.084;5.304;2024-02-26T11:09:03;11.9;;;10.0;;
81815;SDS011;71249;52.084;5.304;2024-02-26T11:10:42;11.2;;;9.71;;
81815;SDS011;71249;52.084;5.304;2024-02-26T11:12:20;10.5;;;9.5;;
81815;SDS011;71249;52.084;5.304;2024-02-26T11:14:02;10.1;;;9.1;;
81815;SDS011;71249;52.084;5.304;2024-02-26T11:17:17;10.4;;;9.31;;
81815;SDS011;71249;52.084;5.304;2024-02-26T11:18:57;9.81;;;8.9;;
81815;SDS011;71249;52.084;5.304;2024-02-26T11:20:34;10.4;;;8.71;;
81815;SDS011;71249;52.084;5.304;2024-02-26T11:22:14;14.2;;;9.6;;
81815;SDS011;71249;52.084;5.304;2024-02-26T11:25:28;10.8;;;9.6;;
81815;SDS011;71249;52.084;5.304;2024-02-26T11:27:06;10.1;;;9.1;;
81815;SDS011;71249;52.084;5.304;2024-02-26T11:28:44;10.0;;;9.1;;
81815;SDS011;71249;52.084;5.304;2024-02-26T11:32:00;10.1;;;9.1;;
81815;SDS011;71249;52.084;5.304;2024-02-26T11:33:37;12.6;;;9.81;;
81815;SDS011;71249;52.084;5.304;2024-02-26T11:35:14;10.1;;;9.1;;
81815;SDS011;71249;52.084;5.304;2024-02-26T11:36:52;10.1;;;9.1;;
81815;SDS011;71249;52.084;5.304;2024-02-26T11:40:10;9.81;;;8.81;;
81815;SDS011;71249;52.084;5.304;2024-02-26T11:41:49;9.6;;;8.6;;
81815;SDS011;71249;52.084;5.304;2024-02-26T11:43:49;9.9;;;8.9;;
81815;SDS011;71249;52.084;5.304;2024-02-26T11:46:03;9.81;;;8.81;;
81815;SDS011;71249;52.084;5.304;2024-02-26T11:47:40;10.9;;;9.81;;
81815;SDS011;71249;52.084;5.304;2024-02-26T11:49:36;9.6;;;8.6;;
81815;SDS011;71249;52.084;5.304;2024-02-26T11:53:19;10.4;;;9.31;;
81815;SDS011;71249;52.084;5.304;2024-02-26T11:54:56;10.1;;;9.1;;
81815;SDS011;71249;52.084;5.304;2024-02-26T11:56:34;10.21;;;9.21;;
81815;SDS011;71249;52.084;5.304;2024-02-26T11:58:11;10.21;;;9.21;;
81815;SDS011;71249;52.084;5.304;2024-02-26T11:59:48;9.9;;;8.9;;
81815;SDS011;71249;52.084;5.304;2024-02-26T12:03:16;10.21;;;9.1;;
81815;SDS011;71249;52.084;5.304;2024-02-26T12:04:53;13.3;;;10.0;;
81815;SDS011;71249;52.084;5.304;2024-02-26T12:06:30;11.1;;;9.6;;
81815;SDS011;71249;52.084;5.304;2024-02-26T12:08:08;10.9;;;9.81;;
81815;SDS011;71249;52.084;5.304;2024-02-26T12:11:21;10.6;;;9.4;;
81815;SDS011;71249;52.084;5.304;2024-02-26T12:12:58;10.1;;;8.9;;
81815;SDS011;71249;52.084;5.304;2024-02-26T12:14:37;10.21;;;9.21;;
81815;SDS011;71249;52.084;5.304;2024-02-26T12:18:15;10.0;;;9.0;;
81815;SDS011;71249;52.084;5.304;2024-02-26T12:19:55;9.21;;;8.4;;
81815;SDS011;71249;52.084;5.304;2024-02-26T12:21:44;9.81;;;8.81;;
81815;SDS011;71249;52.084;5.304;2024-02-26T12:23:21;10.21;;;8.9;;
81815;SDS011;71249;52.084;5.304;2024-02-26T12:24:58;10.4;;;9.31;;
81815;SDS011;71249;52.084;5.304;2024-02-26T12:28:13;9.5;;;8.6;;
81815;SDS011;71249;52.084;5.304;2024-02-26T12:29:50;11.0;;;9.0;;
81815;SDS011;71249;52.084;5.304;2024-02-26T12:31:29;9.5;;;8.6;;
81815;SDS011;71249;52.084;5.304;2024-02-26T12:34:44;10.7;;;9.6;;
81815;SDS011;71249;52.084;5.304;2024-02-26T12:36:21;11.3;;;9.81;;
81815;SDS011;71249;52.084;5.304;2024-02-26T12:37:58;11.3;;;9.4;;
81815;SDS011;71249;52.084;5.304;2024-02-26T12:39:36;11.8;;;9.31;;
81815;SDS011;71249;52.084;5.304;2024-02-26T12:42:52;11.7;;;9.5;;
81815;SDS011;71249;52.084;5.304;2024-02-26T12:44:30;10.8;;;9.5;;
81815;SDS011;71249;52.084;5.304;2024-02-26T12:46:08;10.3;;;8.6;;